Time;durP1;ratioP1;P1;durP2;ratioP2;P2;SDS_P1;SDS_P2;PMS_P1;PMS_P2;Temp;Humidity;BMP_temperature;BMP_pressure;BME280_temperature;BME280_humidity;BME280_pressure;Samples;Min_cycle;Max_cycle;Signal;HPM_P1;HPM_P2
2023/10/18 00:04:45;;;;;;;11.00;6.97;;;;;;;4.06;nan;100877.69;10360322;28;20038;-82
2023/10/18 00:09:46;;;;;;;12.57;7.78;;;;;;;4.15;nan;100873.97;10358664;28;20074;-82
2023/10/18 00:14:48;;;;;;;11.60;6.18;;;;;;;4.02;nan;100870.47;10359140;28;20550;-82
2023/10/18 00:19:48;;;;;;;;;;;;;;;4.05;nan;100865.53;10342842;28;20062;-81
2023/10/18 00:24:49;;;;;;;7.97;6.07;;;;;;;4.06;nan;100863.84;10392395;28;20021;-82
2023/10/18 00:29:53;;;;;;;13.27;7.18;;;;;;;4.02;nan;100867.88;10391346;28;20128;-81
2023/10/18 00:34:55;;;;;;;11.32;7.13;;;;;;;4.07;nan;100863.94;10359179;28;20509;-81
2023/10/18 00:39:56;;;;;;;12.50;6.85;;;;;;;4.11;nan;100859.91;10372422;28;20046;-82
2023/10/18 00:45:02;;;;;;;9.48;5.93;;;;;;;4.05;nan;100851.69;10376560;28;20078;-81
2023/10/18 00:50:03;;;;;;;11.02;7.70;;;;;;;3.86;nan;100847.72;10374797;28;20474;-81
2023/10/18 00:55:05;;;;;;;11.48;6.72;;;;;;;3.82;nan;100854.34;10358342;28;20042;-81
2023/10/18 01:00:12;;;;;;;9.63;6.60;;;;;;;3.82;nan;100843.13;10341418;28;20481;-81
2023/10/18 01:05:13;;;;;;;15.15;8.48;;;;;;;3.56;nan;100831.72;10358813;28;20144;-81
2023/10/18 01:10:14;;;;;;;10.50;6.28;;;;;;;3.53;nan;100839.25;10342291;28;20058;-81
2023/10/18 01:15:19;;;;;;;11.05;6.78;;;;;;;3.55;nan;100829.00;10357765;28;20510;-81
2023/10/18 01:25:34;;;;;;;8.10;5.53;;;;;;;3.43;nan;100827.28;10358581;28;20049;-81
2023/10/18 01:30:34;;;;;;;12.93;9.38;;;;;;;3.30;nan;100801.25;10370732;28;20402;-81
2023/10/18 01:35:35;;;;;;;10.77;7.25;;;;;;;3.16;nan;100795.06;10341149;28;20042;-81
2023/10/18 01:40:41;;;;;;;12.82;7.93;;;;;;;3.31;nan;100785.88;10350093;28;20050;-81
2023/10/18 01:45:42;;;;;;;11.43;6.82;;;;;;;3.23;nan;100772.34;10375748;28;20487;-81
2023/10/18 01:50:47;;;;;;;13.85;5.32;;;;;;;3.32;nan;100774.75;10364408;28;20109;-81
2023/10/18 01:55:51;;;;;;;12.27;6.35;;;;;;;3.56;nan;100766.09;10349440;28;20112;-81
2023/10/18 02:00:53;;;;;;;9.52;5.85;;;;;;;3.62;nan;100763.97;10364773;28;20128;-81
2023/10/18 02:05:54;;;;;;;9.45;5.63;;;;;;;3.73;nan;100755.28;10364781;28;20434;-81
2023/10/18 02:10:55;;;;;;;12.32;7.22;;;;;;;3.79;nan;100747.97;10362877;28;20080;-81
2023/10/18 02:15:57;;;;;;;6.43;3.92;;;;;;;3.70;nan;100746.41;10381799;28;20064;-82
2023/10/18 02:20:58;;;;;;;11.93;6.03;;;;;;;3.74;nan;100735.50;10357812;28;20521;-81
2023/10/18 02:25:58;;;;;;;9.07;5.57;;;;;;;3.66;nan;100732.34;10362671;28;20121;-81
2023/10/18 02:36:20;;;;;;;7.63;4.95;;;;;;;3.62;nan;100727.72;10361673;28;20033;-81
2023/10/18 02:41:21;;;;;;;10.48;6.03;;;;;;;3.60;nan;100731.88;10378051;28;20121;-81
2023/10/18 02:46:25;;;;;;;8.75;4.97;;;;;;;3.66;nan;100716.81;10362509;28;20477;-81
2023/10/18 02:51:26;;;;;;;12.98;7.30;;;;;;;3.61;nan;100715.56;10361140;28;20037;-80
2023/10/18 02:56:27;;;;;;;8.98;5.95;;;;;;;3.66;nan;100709.03;10341973;28;20042;-80
2023/10/18 03:01:27;;;;;;;13.35;5.57;;;;;;;3.81;nan;100707.56;10361912;28;20120;-81
2023/10/18 03:06:28;;;;;;;9.63;4.78;;;;;;;3.85;nan;100693.16;10345538;28;20601;-81
2023/10/18 03:11:31;;;;;;;8.40;5.47;;;;;;;3.92;nan;100684.13;10363959;28;20065;-80
2023/10/18 03:21:33;;;;;;;7.97;4.50;;;;;;;3.96;nan;100660.25;10363942;28;20095;-79
2023/10/18 03:26:35;;;;;;;12.77;5.03;;;;;;;3.87;nan;100657.94;10337161;28;20054;-80
2023/10/18 03:31:36;;;;;;;;;;;;;;;3.89;nan;100653.75;10334557;28;20129;-80
2023/10/18 03:36:48;;;;;;;8.77;5.60;;;;;;;3.95;nan;100641.25;10360015;28;19921;-81
2023/10/18 03:41:53;;;;;;;9.43;5.00;;;;;;;4.02;nan;100644.28;10361620;28;20085;-80
2023/10/18 03:57:16;;;;;;;7.07;4.25;;;;;;;4.14;nan;100616.63;10360699;28;20049;-81
2023/10/18 04:02:26;;;;;;;7.10;4.57;;;;;;;4.18;nan;100612.53;10360214;28;20490;-79
2023/10/18 04:07:27;;;;;;;6.47;3.53;;;;;;;4.12;nan;100597.50;10374630;28;20125;-79
2023/10/18 04:12:27;;;;;;;7.63;4.15;;;;;;;4.05;nan;100596.16;10356369;28;20040;-79
2023/10/18 04:22:42;;;;;;;8.13;4.35;;;;;;;4.28;nan;100589.06;10360640;28;20056;-81
2023/10/18 04:27:47;;;;;;;7.82;4.80;;;;;;;4.25;nan;100583.69;10343768;28;20478;-81
2023/10/18 04:32:50;;;;;;;7.50;4.90;;;;;;;4.24;nan;100581.88;10346259;28;20092;-80
2023/10/18 04:37:53;;;;;;;11.48;5.07;;;;;;;4.18;nan;100579.78;10343930;28;20049;-79
2023/10/18 04:42:57;;;;;;;9.25;4.78;;;;;;;4.13;nan;100577.66;10345844;28;20129;-79
2023/10/18 04:48:06;;;;;;;11.95;4.95;;;;;;;4.08;nan;100567.88;10315813;28;20038;-80
2023/10/18 04:53:14;;;;;;;9.15;4.63;;;;;;;4.06;nan;100561.69;10343523;28;20129;-80
2023/10/18 04:58:15;;;;;;;8.50;5.55;;;;;;;4.10;nan;100552.47;10340730;28;20045;-79
2023/10/18 05:03:17;;;;;;;9.63;4.70;;;;;;;4.04;nan;100558.09;10341449;28;20929;-80
2023/10/18 05:08:18;;;;;;;10.88;4.68;;;;;;;4.04;nan;100549.44;10358814;28;20145;-80
2023/10/18 05:13:19;;;;;;;9.25;4.30;;;;;;;4.03;nan;100543.34;10357744;28;20133;-80
2023/10/18 05:18:23;;;;;;;6.80;4.63;;;;;;;4.05;nan;100540.88;10356828;28;20049;-80
2023/10/18 05:23:27;;;;;;;8.60;5.65;;;;;;;4.19;nan;100528.88;10365572;28;20046;-80
2023/10/18 05:28:28;;;;;;;8.32;5.43;;;;;;;4.18;nan;100534.84;10381278;28;20133;-80
2023/10/18 05:43:46;;;;;;;11.43;5.15;;;;;;;3.96;nan;100521.34;10388079;28;19925;-80
2023/10/18 05:48:50;;;;;;;10.93;5.28;;;;;;;4.02;nan;100525.13;10364369;28;20045;-79
2023/10/18 05:53:59;;;;;;;21.20;7.28;;;;;;;3.93;nan;100520.22;10362568;28;20177;-80
2023/10/18 06:04:24;;;;;;;10.35;5.47;;;;;;;4.02;nan;100509.59;10377519;28;20049;-80
2023/10/18 06:09:32;;;;;;;10.05;5.85;;;;;;;3.98;nan;100503.28;10364553;28;20457;-80
2023/10/18 06:14:44;;;;;;;8.57;5.97;;;;;;;3.95;nan;100498.81;10344928;28;20047;-80
2023/10/18 06:19:45;;;;;;;7.53;4.70;;;;;;;4.01;nan;100494.84;10364512;28;20121;-80
2023/10/18 06:24:48;;;;;;;12.60;5.28;;;;;;;4.09;nan;100491.97;10359792;28;20112;-81
2023/10/18 06:29:53;;;;;;;9.52;5.90;;;;;;;4.28;nan;100488.03;10327788;28;20037;-81
2023/10/18 06:34:57;;;;;;;10.05;6.30;;;;;;;4.46;nan;100483.19;10339994;28;20088;-80
2023/10/18 06:40:02;;;;;;;9.75;5.32;;;;;;;4.57;nan;100465.72;10354238;28;20041;-80
2023/10/18 06:45:10;;;;;;;10.63;5.30;;;;;;;4.69;nan;100461.34;10362508;28;20044;-80
2023/10/18 06:50:19;;;;;;;7.50;5.45;;;;;;;4.80;nan;100451.69;10331205;28;20783;-80
2023/10/18 06:55:30;;;;;;;14.40;6.35;;;;;;;4.90;nan;100447.97;10356530;28;20038;-78
2023/10/18 07:00:32;;;;;;;11.45;6.05;;;;;;;5.05;nan;100441.97;10363839;28;20563;-78
2023/10/18 07:05:33;;;;;;;;;;;;;;;5.25;nan;100448.41;10328395;28;20100;-78
2023/10/18 07:16:15;;;;;;;10.52;6.07;;;;;;;5.64;nan;100440.38;10347806;28;20041;-79
2023/10/18 07:21:19;;;;;;;8.70;5.53;;;;;;;5.79;nan;100432.63;10355168;28;20037;-80
2023/10/18 07:26:22;;;;;;;10.32;5.50;;;;;;;5.99;nan;100426.91;10389283;28;20053;-78
2023/10/18 07:31:32;;;;;;;17.08;7.07;;;;;;;6.14;nan;100423.44;10350232;28;20118;-80
2023/10/18 07:36:37;;;;;;;7.55;5.25;;;;;;;6.31;nan;100417.53;10370484;28;20047;-79
2023/10/18 07:41:40;;;;;;;10.43;5.60;;;;;;;6.53;nan;100415.25;10367482;28;20040;-79
2023/10/18 07:46:40;;;;;;;11.60;5.63;;;;;;;6.75;nan;100405.25;10327302;28;20581;-80
2023/10/18 07:51:56;;;;;;;8.60;5.80;;;;;;;6.81;nan;100403.78;10352032;28;20038;-79
2023/10/18 07:56:56;;;;;;;15.98;5.30;;;;;;;6.97;nan;100393.41;10385259;28;20042;-78
2023/10/18 08:07:12;;;;;;;11.95;5.03;;;;;;;7.44;nan;100394.19;10357248;28;20038;-78
2023/10/18 08:17:42;;;;;;;;;;;;;;;7.78;nan;100384.59;10334424;28;20124;-77
2023/10/18 08:22:43;;;;;;;7.15;4.93;;;;;;;7.91;nan;100387.03;10380081;28;20377;-78
2023/10/18 08:27:44;;;;;;;9.30;5.20;;;;;;;8.20;nan;100371.06;10341740;28;20034;-78
2023/10/18 08:32:44;;;;;;;10.43;5.15;;;;;;;8.54;nan;100379.66;10330232;28;20135;-78
2023/10/18 08:37:45;;;;;;;8.45;4.55;;;;;;;8.69;nan;100375.16;10349676;28;20065;-79
2023/10/18 08:42:50;;;;;;;7.70;5.13;;;;;;;8.96;nan;100365.13;10357384;28;20038;-81
2023/10/18 08:47:56;;;;;;;9.77;5.72;;;;;;;9.15;nan;100378.13;10371813;28;20516;-80
2023/10/18 08:52:57;;;;;;;7.85;5.43;;;;;;;9.50;nan;100387.56;10374216;28;20041;-81
2023/10/18 08:57:57;;;;;;;8.32;5.20;;;;;;;9.75;nan;100386.03;10373511;28;20125;-81
2023/10/18 09:02:58;;;;;;;17.50;4.85;;;;;;;10.14;nan;100391.16;10375576;28;20124;-80
2023/10/18 09:08:03;;;;;;;10.63;5.60;;;;;;;10.56;nan;100377.16;10357680;28;20072;-80
2023/10/18 09:18:13;;;;;;;9.95;5.30;;;;;;;10.85;nan;100364.31;10357293;28;20513;-77
2023/10/18 09:23:20;;;;;;;12.18;5.40;;;;;;;11.08;nan;100345.97;10374101;28;20155;-77
2023/10/18 09:28:25;;;;;;;8.18;4.65;;;;;;;11.18;nan;100351.56;10388518;28;20049;-77
2023/10/18 09:33:32;;;;;;;10.82;7.00;;;;;;;11.23;nan;100350.00;10358936;28;20034;-78
2023/10/18 09:38:39;;;;;;;9.02;4.80;;;;;;;11.48;nan;100328.22;10343173;28;20045;-78
2023/10/18 09:43:39;;;;;;;6.93;4.70;;;;;;;12.00;nan;100318.63;10341716;28;20121;-77
2023/10/18 09:48:41;;;;;;;10.35;5.25;;;;;;;12.90;nan;100326.66;10352068;28;20053;-78
2023/10/18 09:53:46;;;;;;;8.95;5.88;;;;;;;15.00;nan;100336.31;10358266;28;20088;-78
2023/10/18 09:58:47;;;;;;;14.45;5.45;;;;;;;15.33;nan;100346.69;10355075;28;20445;-79
2023/10/18 10:03:51;;;;;;;10.80;5.55;;;;;;;15.79;nan;100345.78;10374059;28;20141;-79
2023/10/18 10:08:56;;;;;;;13.40;6.35;;;;;;;15.67;nan;100341.16;10362762;28;20066;-79
2023/10/18 10:13:58;;;;;;;8.50;5.45;;;;;;;15.11;nan;100329.53;10350934;28;20033;-78
2023/10/18 10:19:02;;;;;;;9.23;5.75;;;;;;;14.34;nan;100332.22;10323436;28;20427;-79
2023/10/18 10:24:29;;;;;;;9.77;5.55;;;;;;;14.41;nan;100317.47;10358113;28;20034;-77
2023/10/18 10:34:41;;;;;;;12.68;6.50;;;;;;;14.63;nan;100300.41;10363451;28;20076;-77
2023/10/18 10:39:45;;;;;;;10.25;5.80;;;;;;;15.30;nan;100285.97;10375108;28;20034;-78
2023/10/18 10:45:32;;;;;;;10.15;5.00;;;;;;;15.74;nan;100266.53;10353714;28;20104;-77
2023/10/18 10:50:37;;;;;;;;;;;;;;;16.28;nan;100267.41;10358503;28;20449;-78
2023/10/18 10:55:38;;;;;;;9.63;5.60;;;;;;;16.36;nan;100282.50;10378508;28;19921;-79
2023/10/18 11:00:39;;;;;;;10.23;6.43;;;;;;;16.31;nan;100258.63;10392497;28;20034;-77
2023/10/18 11:05:39;;;;;;;10.77;4.78;;;;;;;15.99;nan;100259.94;10354091;28;20044;-77
2023/10/18 11:10:40;;;;;;;8.63;5.13;;;;;;;14.71;nan;100245.31;10400837;28;20486;-77
2023/10/18 11:15:42;;;;;;;9.43;5.07;;;;;;;14.85;nan;100235.03;10355770;28;20410;-77
2023/10/18 11:20:48;;;;;;;9.65;4.63;;;;;;;15.40;nan;100227.28;10377851;28;20037;-77
2023/10/18 11:25:56;;;;;;;8.52;4.93;;;;;;;16.46;nan;100222.75;10356606;28;20080;-76
2023/10/18 11:30:57;;;;;;;12.32;5.82;;;;;;;16.53;nan;100209.66;10353799;28;20033;-76
2023/10/18 11:36:02;;;;;;;12.02;4.13;;;;;;;17.34;nan;100186.78;10359355;28;20069;-76
2023/10/18 11:41:09;;;;;;;8.80;4.85;;;;;;;18.66;nan;100182.31;10339202;28;20060;-78
2023/10/18 11:46:11;;;;;;;7.82;4.32;;;;;;;18.05;nan;100174.09;10357270;28;20049;-79
2023/10/18 11:51:13;;;;;;;7.68;4.50;;;;;;;16.34;nan;100160.97;10337597;28;20505;-77
2023/10/18 11:56:14;;;;;;;9.00;4.93;;;;;;;16.04;nan;100157.06;10363518;28;20038;-77
2023/10/18 12:01:18;;;;;;;9.93;5.00;;;;;;;16.25;nan;100150.31;10342314;28;20149;-77
2023/10/18 12:06:22;;;;;;;9.55;4.97;;;;;;;15.91;nan;100123.47;10341086;28;20044;-77
2023/10/18 12:11:22;;;;;;;7.07;4.75;;;;;;;15.54;nan;100106.19;10360010;28;20046;-77
2023/10/18 12:16:23;;;;;;;12.65;4.95;;;;;;;15.77;nan;100105.66;10356913;28;20046;-78
2023/10/18 12:21:29;;;;;;;7.75;4.20;;;;;;;16.49;nan;100102.19;10355890;28;20586;-77
2023/10/18 12:26:35;;;;;;;5.90;3.30;;;;;;;15.27;nan;100080.31;10396230;28;20041;-77
2023/10/18 12:31:39;;;;;;;12.38;4.07;;;;;;;14.51;nan;100060.53;10356976;28;20065;-76
2023/10/18 12:36:39;;;;;;;12.80;4.28;;;;;;;14.16;nan;100052.84;10341827;28;20045;-75
2023/10/18 12:41:40;;;;;;;9.23;4.35;;;;;;;13.92;nan;100035.69;10354326;28;20117;-75
2023/10/18 12:46:41;;;;;;;6.68;2.80;;;;;;;14.22;nan;100005.59;10357718;28;20141;-76
2023/10/18 12:51:57;;;;;;;9.40;3.80;;;;;;;14.56;nan;99997.44;10367159;28;20048;-76
2023/10/18 12:57:08;;;;;;;11.02;3.25;;;;;;;14.33;nan;99988.25;10367305;28;20038;-75
2023/10/18 13:02:12;;;;;;;9.00;4.05;;;;;;;14.07;nan;99962.34;10336104;28;20109;-76
2023/10/18 13:07:19;;;;;;;8.20;3.60;;;;;;;14.08;nan;99957.97;10364521;28;20151;-78
2023/10/18 13:12:23;;;;;;;6.53;3.42;;;;;;;14.10;nan;99936.09;10356435;28;20038;-77
2023/10/18 13:17:24;;;;;;;6.63;2.97;;;;;;;14.05;nan;99916.69;10343389;28;20084;-77
2023/10/18 13:22:25;;;;;;;5.03;2.70;;;;;;;14.46;nan;99914.75;10383181;28;20196;-77
2023/10/18 13:27:36;;;;;;;10.47;3.23;;;;;;;14.44;nan;99901.59;10354866;28;20073;-77
2023/10/18 13:32:37;;;;;;;7.20;3.27;;;;;;;14.10;nan;99907.13;10356387;28;20084;-76
2023/10/18 13:37:37;;;;;;;7.63;2.95;;;;;;;13.83;nan;99881.25;10357138;28;20128;-77
2023/10/18 13:42:40;;;;;;;6.85;3.03;;;;;;;13.71;nan;99868.72;10378017;28;20159;-77
2023/10/18 13:47:41;;;;;;;6.68;3.00;;;;;;;13.66;nan;99851.97;10365048;28;20042;-77
2023/10/18 13:52:41;;;;;;;6.03;2.90;;;;;;;13.69;nan;99849.41;10377553;28;20038;-77
2023/10/18 13:57:42;;;;;;;9.27;3.65;;;;;;;13.61;nan;99832.59;10347598;28;20116;-77
2023/10/18 14:02:43;;;;;;;6.53;2.65;;;;;;;13.71;nan;99817.91;10365399;28;20750;-75
2023/10/18 14:07:44;;;;;;;4.88;2.40;;;;;;;13.56;nan;99819.38;10364830;28;20042;-77
2023/10/18 14:12:46;;;;;;;4.50;2.53;;;;;;;13.46;nan;99806.94;10366818;28;20046;-76
2023/10/18 14:17:47;;;;;;;;;;;;;;;13.40;nan;99805.03;10363064;28;20068;-76
2023/10/18 14:22:53;;;;;;;7.40;3.88;;;;;;;13.34;nan;99786.50;10397590;28;20397;-77
2023/10/18 14:27:53;;;;;;;8.40;3.67;;;;;;;13.22;nan;99780.16;10361352;28;20040;-76
2023/10/18 14:32:59;;;;;;;3.65;2.55;;;;;;;13.23;nan;99773.19;10364091;28;20125;-77
2023/10/18 14:37:59;;;;;;;5.07;2.50;;;;;;;13.33;nan;99761.09;10375336;28;20486;-76
2023/10/18 14:43:06;;;;;;;5.78;2.30;;;;;;;13.41;nan;99766.50;10392831;28;20037;-77
2023/10/18 14:48:06;;;;;;;6.60;3.75;;;;;;;13.34;nan;99757.59;10362265;28;20046;-78
2023/10/18 14:53:07;;;;;;;4.13;2.58;;;;;;;13.26;nan;99743.44;10363120;28;20065;-78
2023/10/18 14:58:07;;;;;;;4.32;2.78;;;;;;;13.28;nan;99733.84;10361477;28;20101;-77
2023/10/18 15:03:10;;;;;;;5.38;2.33;;;;;;;13.24;nan;99717.16;10378879;28;20536;-77
2023/10/18 15:08:12;;;;;;;5.03;2.10;;;;;;;13.10;nan;99709.00;10362989;28;20494;-77
2023/10/18 15:13:13;;;;;;;6.50;2.78;;;;;;;12.98;nan;99707.03;10361847;28;20046;-77
2023/10/18 15:18:14;;;;;;;5.00;2.58;;;;;;;12.96;nan;99710.47;10378165;28;20038;-77
2023/10/18 15:23:15;;;;;;;5.30;2.75;;;;;;;12.95;nan;99706.06;10379464;28;20386;-77
2023/10/18 15:28:15;;;;;;;8.68;2.67;;;;;;;12.85;nan;99692.78;10361120;28;20040;-77
2023/10/18 15:33:19;;;;;;;5.05;2.33;;;;;;;12.85;nan;99687.50;10363445;28;20072;-77
2023/10/18 15:38:20;;;;;;;6.43;2.65;;;;;;;12.74;nan;99666.31;10362052;28;20041;-77
2023/10/18 15:43:21;;;;;;;6.40;2.78;;;;;;;12.52;nan;99651.00;10363075;28;20475;-76
2023/10/18 15:48:21;;;;;;;6.38;2.90;;;;;;;12.38;nan;99643.72;10359894;28;20129;-77
2023/10/18 15:53:23;;;;;;;7.88;2.65;;;;;;;12.30;nan;99640.94;10360607;28;20433;-77
2023/10/18 15:58:24;;;;;;;5.13;2.60;;;;;;;12.24;nan;99637.31;10338175;28;20042;-78
2023/10/18 16:03:24;;;;;;;7.75;4.13;;;;;;;12.23;nan;99633.78;10336443;28;20584;-77
2023/10/18 16:08:25;;;;;;;9.32;2.97;;;;;;;12.07;nan;99635.22;10347860;28;20105;-77
2023/10/18 16:13:26;;;;;;;9.30;3.03;;;;;;;11.98;nan;99633.22;10336593;28;20570;-77
2023/10/18 16:18:28;;;;;;;15.00;5.50;;;;;;;11.90;nan;99619.06;10356863;28;20145;-76
2023/10/18 16:23:29;;;;;;;16.23;4.20;;;;;;;11.94;nan;99609.53;10359617;28;20367;-78
2023/10/18 16:28:31;;;;;;;16.33;3.33;;;;;;;11.90;nan;99598.09;10353722;28;20046;-76
2023/10/18 16:33:31;;;;;;;14.15;5.13;;;;;;;11.85;nan;99594.47;10360918;28;20041;-77
2023/10/18 16:38:32;;;;;;;13.98;5.07;;;;;;;11.83;nan;99590.94;10357772;28;20429;-77
2023/10/18 16:43:35;;;;;;;9.05;2.92;;;;;;;11.80;nan;99585.63;10343240;28;20180;-77
2023/10/18 16:48:36;;;;;;;14.85;3.92;;;;;;;11.74;nan;99582.00;10348971;28;20117;-78
2023/10/18 16:53:40;;;;;;;9.18;3.28;;;;;;;11.74;nan;99581.16;10358632;28;20498;-78
2023/10/18 16:58:40;;;;;;;14.50;3.47;;;;;;;11.80;nan;99565.56;10358242;28;20386;-77
2023/10/18 17:03:44;;;;;;;12.40;3.00;;;;;;;11.85;nan;99556.06;10356678;28;20049;-77
2023/10/18 17:08:45;;;;;;;8.15;3.03;;;;;;;11.88;nan;99553.50;10358277;28;20038;-75
2023/10/18 17:13:47;;;;;;;5.75;2.97;;;;;;;11.82;nan;99536.75;10356465;28;20509;-78
2023/10/18 17:18:50;;;;;;;6.25;3.17;;;;;;;11.89;nan;99539.53;10391606;28;20092;-78
2023/10/18 17:23:52;;;;;;;11.52;3.30;;;;;;;11.81;nan;99535.88;10357007;28;20126;-78
2023/10/18 17:28:52;;;;;;;6.43;3.53;;;;;;;11.86;nan;99533.31;10341529;28;20038;-77
2023/10/18 17:33:53;;;;;;;14.50;4.13;;;;;;;11.83;nan;99531.53;10356579;28;20076;-77
2023/10/18 17:38:53;;;;;;;7.95;3.50;;;;;;;11.83;nan;99523.69;10358858;28;20050;-77
2023/10/18 17:43:54;;;;;;;7.85;4.65;;;;;;;11.85;nan;99518.44;10373005;28;20117;-77
2023/10/18 17:48:55;;;;;;;8.95;3.10;;;;;;;11.82;nan;99515.75;10373031;28;20113;-78
2023/10/18 17:53:56;;;;;;;12.55;3.15;;;;;;;11.82;nan;99510.53;10356986;28;20081;-78
2023/10/18 17:58:56;;;;;;;12.27;3.92;;;;;;;11.80;nan;99504.38;10359216;28;20030;-78
2023/10/18 18:03:57;;;;;;;6.10;3.55;;;;;;;11.75;nan;99501.66;10372920;28;20549;-77
2023/10/18 18:08:59;;;;;;;9.25;3.03;;;;;;;11.78;nan;99495.59;10374415;28;20062;-78
2023/10/18 18:14:00;;;;;;;6.50;3.05;;;;;;;11.72;nan;99476.25;10356258;28;20042;-78
2023/10/18 18:19:00;;;;;;;6.47;3.92;;;;;;;11.70;nan;99470.09;10357543;28;20489;-78
2023/10/18 18:24:01;;;;;;;5.05;2.83;;;;;;;11.70;nan;99459.63;10371862;28;20137;-78
2023/10/18 18:29:01;;;;;;;8.48;3.10;;;;;;;11.67;nan;99449.06;10359861;28;20053;-77
2023/10/18 18:34:04;;;;;;;7.13;3.30;;;;;;;11.64;nan;99427.19;10364221;28;20492;-78
2023/10/18 18:39:04;;;;;;;9.40;3.42;;;;;;;11.44;nan;99417.16;10364496;28;20052;-77
2023/10/18 18:44:05;;;;;;;6.38;2.97;;;;;;;11.18;nan;99400.88;10363522;28;20034;-78
2023/10/18 18:49:06;;;;;;;8.70;3.67;;;;;;;11.00;nan;99386.53;10363490;28;20037;-77
2023/10/18 18:54:07;;;;;;;7.43;3.90;;;;;;;10.71;nan;99373.69;10362704;28;20038;-76
2023/10/18 18:59:07;;;;;;;8.23;4.30;;;;;;;10.45;nan;99360.00;10361836;28;20046;-77
2023/10/18 19:04:08;;;;;;;6.82;4.00;;;;;;;10.17;nan;99339.25;10362390;28;20437;-77
2023/10/18 19:09:09;;;;;;;7.80;3.78;;;;;;;9.86;nan;99314.09;10362827;28;20042;-77
2023/10/18 19:14:09;;;;;;;9.77;4.07;;;;;;;9.66;nan;99289.19;10362097;28;20389;-77
2023/10/18 19:19:13;;;;;;;8.25;4.50;;;;;;;9.49;nan;99299.22;10360528;28;20085;-76
2023/10/18 19:24:14;;;;;;;13.55;5.88;;;;;;;9.34;nan;99307.50;10358890;28;20398;-76
2023/10/18 19:29:15;;;;;;;42.55;5.90;;;;;;;9.31;nan;99314.38;10394737;28;20048;-75
2023/10/18 19:34:16;;;;;;;8.10;5.60;;;;;;;9.18;nan;99321.88;10361850;28;20061;-76
2023/10/18 19:39:16;;;;;;;9.77;5.72;;;;;;;9.11;nan;99312.97;10394272;28;20611;-75
2023/10/18 19:44:17;;;;;;;14.75;6.22;;;;;;;9.06;nan;99304.09;10360198;28;20046;-75
2023/10/18 19:49:17;;;;;;;9.65;6.03;;;;;;;9.01;nan;99295.25;10361598;28;20136;-74
2023/10/18 19:54:18;;;;;;;13.82;7.18;;;;;;;8.93;nan;99288.94;10360755;28;20077;-74
2023/10/18 19:59:18;;;;;;;9.60;6.53;;;;;;;8.86;nan;99272.25;10361664;28;20076;-75
2023/10/18 20:04:19;;;;;;;14.02;7.22;;;;;;;8.85;nan;99273.09;10359805;28;20379;-74
2023/10/18 20:09:19;;;;;;;13.95;6.95;;;;;;;8.82;nan;99271.25;10341431;28;20041;-75
2023/10/18 20:14:20;;;;;;;13.00;7.35;;;;;;;8.86;nan;99266.13;10359736;28;20509;-75
2023/10/18 20:19:21;;;;;;;12.50;6.68;;;;;;;8.89;nan;99251.44;10358599;28;20038;-76
2023/10/18 20:24:23;;;;;;;14.38;8.35;;;;;;;8.90;nan;99244.50;10358690;28;20049;-75
2023/10/18 20:29:23;;;;;;;;;;;;;;;8.98;nan;99242.13;10352768;28;20038;-74
2023/10/18 20:34:24;;;;;;;14.07;6.93;;;;;;;8.95;nan;99219.41;10353043;28;20305;-74
2023/10/18 20:39:25;;;;;;;13.50;9.15;;;;;;;8.89;nan;99232.28;10356271;28;20289;-74
2023/10/18 20:44:27;;;;;;;14.48;9.80;;;;;;;8.96;nan;99229.00;10359249;28;20088;-73
2023/10/18 20:49:32;;;;;;;11.85;8.32;;;;;;;8.94;nan;99217.66;10355667;28;20033;-73
2023/10/18 20:54:36;;;;;;;18.08;10.07;;;;;;;8.91;nan;99188.88;10357922;28;20060;-74
2023/10/18 20:59:38;;;;;;;12.05;9.05;;;;;;;8.97;nan;99170.75;10360362;28;20054;-73
2023/10/18 21:04:38;;;;;;;16.13;10.87;;;;;;;9.00;nan;99147.38;10357109;28;20401;-74
2023/10/18 21:09:41;;;;;;;15.25;11.43;;;;;;;8.99;nan;99142.97;10357273;28;20061;-73
2023/10/18 21:14:41;;;;;;;17.00;11.63;;;;;;;9.03;nan;99134.41;10342341;28;20065;-73
2023/10/18 21:19:43;;;;;;;16.30;11.13;;;;;;;9.14;nan;99128.56;10351158;28;20118;-73
2023/10/18 21:24:46;;;;;;;23.20;13.23;;;;;;;9.19;nan;99104.38;10317041;28;20062;-73
2023/10/18 21:29:46;;;;;;;20.25;12.75;;;;;;;9.31;nan;99108.13;10356747;28;20273;-73
2023/10/18 21:34:47;;;;;;;16.25;14.27;;;;;;;9.41;nan;99102.28;10355526;28;20053;-74
2023/10/18 21:39:48;;;;;;;23.77;13.18;;;;;;;9.47;nan;99093.69;10358149;28;20520;-74
2023/10/18 21:44:48;;;;;;;18.92;12.57;;;;;;;9.50;nan;99086.81;10373761;28;20517;-73
2023/10/18 21:49:50;;;;;;;19.00;12.50;;;;;;;9.55;nan;99079.09;10347501;28;20099;-73
2023/10/18 21:54:56;;;;;;;16.63;12.80;;;;;;;9.55;nan;99076.47;10352850;28;20124;-73
2023/10/18 21:59:57;;;;;;;17.48;13.32;;;;;;;9.59;nan;99067.84;10353577;28;20042;-73
2023/10/18 22:05:03;;;;;;;17.52;12.23;;;;;;;9.58;nan;99071.31;10364473;28;20438;-73
2023/10/18 22:10:07;;;;;;;21.58;13.95;;;;;;;9.62;nan;99056.63;10364585;28;20050;-74
2023/10/18 22:15:14;;;;;;;17.63;13.80;;;;;;;9.64;nan;99041.84;10381538;28;20034;-73
2023/10/18 22:20:22;;;;;;;22.73;14.57;;;;;;;9.67;nan;99034.09;10359588;28;20770;-73
2023/10/18 22:25:23;;;;;;;16.65;12.70;;;;;;;9.68;nan;99033.25;10300097;28;20054;-74
2023/10/18 22:30:30;;;;;;;21.75;14.43;;;;;;;9.69;nan;99022.81;10290414;28;20072;-74
2023/10/18 22:35:34;;;;;;;17.77;12.07;;;;;;;9.67;nan;99023.66;10308651;28;20065;-74
2023/10/18 22:40:35;;;;;;;17.92;12.93;;;;;;;9.71;nan;99017.63;10305751;28;20065;-74
2023/10/18 22:45:41;;;;;;;20.13;13.57;;;;;;;9.70;nan;99008.91;10305293;28;20065;-74
2023/10/18 22:50:41;;;;;;;28.65;13.32;;;;;;;9.79;nan;99007.34;10323318;28;20041;-73
2023/10/18 22:55:46;;;;;;;19.88;13.32;;;;;;;9.73;nan;98988.91;10290681;28;20049;-74
2023/10/18 23:00:49;;;;;;;22.17;14.75;;;;;;;9.82;nan;98989.09;10304544;28;20398;-74
2023/10/18 23:05:56;;;;;;;17.55;12.77;;;;;;;9.77;nan;98991.66;10306115;28;20129;-74
2023/10/18 23:11:02;;;;;;;24.95;14.45;;;;;;;9.81;nan;98989.97;10305847;28;20103;-74
2023/10/18 23:16:09;;;;;;;18.63;12.38;;;;;;;9.79;nan;98987.31;10305494;28;20061;-74
2023/10/18 23:31:32;;;;;;;20.50;13.98;;;;;;;9.91;nan;98971.00;10306465;28;20053;-75
2023/10/18 23:36:36;;;;;;;15.85;12.70;;;;;;;9.89;nan;98961.38;10308141;28;21657;-74
2023/10/18 23:41:42;;;;;;;18.50;13.32;;;;;;;9.92;nan;98964.06;10306916;28;20128;-74
2023/10/18 23:52:33;;;;;;;21.92;14.75;;;;;;;10.00;nan;98957.25;10305359;28;20057;-73
2023/10/18 23:57:10;;;;;;;16.88;12.32;;;;;;;10.02;nan;98947.72;10319718;28;20077;-73
